Time;durP1;ratioP1;P1;durP2;ratioP2;P2;SDS_P1;SDS_P2;PMS_P1;PMS_P2;Temp;Humidity;BMP_temperature;BMP_pressure;BME280_temperature;BME280_humidity;BME280_pressure;Samples;Min_cycle;Max_cycle;Signal;HPM_P1;HPM_P2
2023/06/13 00:02:20;;;;;;;6.70;4.50;;;;;;;10.72;91.92;99016.27;109584;1250;63717;-77
2023/06/13 00:04:48;;;;;;;9.20;4.40;;;;;;;10.73;91.89;99014.79;109620;1250;59007;-77
2023/06/13 00:07:14;;;;;;;6.50;4.40;;;;;;;10.73;92.02;99013.53;109672;1251;59218;-77
2023/06/13 00:09:40;;;;;;;4.20;3.80;;;;;;;10.73;92.31;99012.80;109629;1251;59301;-78
2023/06/13 00:12:09;;;;;;;6.80;4.30;;;;;;;10.74;92.38;99014.73;109666;1251;58980;-77
2023/06/13 00:14:36;;;;;;;7.90;4.50;;;;;;;10.73;92.84;99012.64;109694;1250;62849;-78
2023/06/13 00:17:02;;;;;;;5.60;3.60;;;;;;;10.72;93.09;99013.79;109309;1250;58997;-78
2023/06/13 00:19:29;;;;;;;8.20;4.50;;;;;;;10.68;93.28;99011.59;109597;1249;59321;-77
2023/06/13 00:21:58;;;;;;;5.70;3.70;;;;;;;10.64;93.25;99012.02;109319;1251;66388;-78
2023/06/13 00:24:25;;;;;;;6.00;5.10;;;;;;;10.62;93.76;99011.42;109638;1249;59021;-77
2023/06/13 00:26:51;;;;;;;10.30;5.20;;;;;;;10.59;94.50;99010.60;109635;1249;59082;-77
2023/06/13 00:29:17;;;;;;;8.10;4.90;;;;;;;10.54;94.38;99011.60;109563;1251;59040;-77
2023/06/13 00:31:44;;;;;;;7.20;4.50;;;;;;;10.50;94.48;99009.53;109355;1250;59580;-76
2023/06/13 00:34:10;;;;;;;7.30;5.30;;;;;;;10.47;95.00;99007.29;109590;1250;58974;-77
2023/06/13 00:36:37;;;;;;;7.20;4.70;;;;;;;10.43;95.17;99001.86;109626;1251;58968;-77
2023/06/13 00:39:04;;;;;;;4.60;3.80;;;;;;;10.39;95.40;98996.66;109567;1251;62896;-77
2023/06/13 00:41:31;;;;;;;7.70;4.60;;;;;;;10.33;96.20;98997.53;109633;1251;58963;-77
2023/06/13 00:43:58;;;;;;;6.00;4.90;;;;;;;10.29;96.55;99000.29;109654;1249;59120;-78
2023/06/13 00:46:32;;;;;;;5.40;4.80;;;;;;;10.26;96.98;98994.63;109599;1250;65997;-76
2023/06/13 00:48:59;;;;;;;8.20;4.60;;;;;;;10.21;97.44;98990.14;109589;1251;59034;-77
2023/06/13 00:51:31;;;;;;;5.50;4.50;;;;;;;10.17;97.41;98986.30;109605;1250;63744;-78
2023/06/13 00:54:00;;;;;;;7.00;5.00;;;;;;;10.12;97.65;98982.56;109615;1251;59152;-77
2023/06/13 00:56:28;;;;;;;5.00;4.50;;;;;;;10.06;98.34;98983.34;109619;1250;59097;-77
2023/06/13 00:58:58;;;;;;;7.10;4.50;;;;;;;9.99;98.41;98981.66;109551;1250;64493;-76
2023/06/13 01:01:24;;;;;;;5.20;4.40;;;;;;;9.91;98.60;98976.83;109614;1250;69782;-77
2023/06/13 01:03:52;;;;;;;5.00;4.50;;;;;;;9.82;99.52;98972.41;109431;1249;63903;-76
2023/06/13 01:06:18;;;;;;;9.60;4.50;;;;;;;9.73;99.72;98966.10;109574;1250;59027;-77
2023/06/13 01:08:45;;;;;;;8.30;5.30;;;;;;;9.66;99.98;98967.96;109592;1250;59135;-78
2023/06/13 01:11:35;;;;;;;6.60;5.10;;;;;;;9.57;100.00;98972.21;109661;1251;66957;-78
2023/06/13 01:14:14;;;;;;;6.90;4.80;;;;;;;9.49;100.00;98974.16;109603;1251;59186;-78
2023/06/13 01:16:47;;;;;;;5.60;5.10;;;;;;;9.41;100.00;98971.65;109561;1250;64037;-79
2023/06/13 01:19:34;;;;;;;6.00;4.70;;;;;;;9.34;100.00;98969.24;109308;1256;59450;-78
2023/06/13 01:22:05;;;;;;;7.20;5.80;;;;;;;9.26;100.00;98970.63;109636;1250;59081;-78
2023/06/13 01:24:41;;;;;;;9.90;5.40;;;;;;;9.18;100.00;98968.45;109608;1249;64494;-76
2023/06/13 01:27:10;;;;;;;4.50;4.10;;;;;;;9.13;100.00;98968.04;109628;1251;60116;-78
2023/06/13 01:29:37;;;;;;;6.10;4.90;;;;;;;9.09;100.00;98965.48;109588;1251;64058;-78
2023/06/13 01:32:05;;;;;;;6.20;4.60;;;;;;;9.06;100.00;98966.71;109613;1250;58944;-78
2023/06/13 01:34:32;;;;;;;5.20;4.70;;;;;;;9.02;100.00;98964.83;109669;1250;58955;-78
2023/06/13 01:36:59;;;;;;;9.60;5.30;;;;;;;8.99;100.00;98968.20;109638;1250;66095;-77
2023/06/13 01:39:25;;;;;;;8.10;5.60;;;;;;;8.97;100.00;98970.30;109408;1251;59857;-78
2023/06/13 01:41:53;;;;;;;7.30;6.00;;;;;;;8.93;100.00;98970.70;109594;1251;62475;-78
2023/06/13 01:44:20;;;;;;;6.90;5.60;;;;;;;8.89;100.00;98968.29;109588;1250;58952;-77
2023/06/13 01:46:47;;;;;;;6.70;5.30;;;;;;;8.86;100.00;98973.08;109390;1251;58956;-77
2023/06/13 01:49:26;;;;;;;7.60;5.40;;;;;;;8.81;100.00;98974.43;109580;1251;66142;-78
2023/06/13 01:52:32;;;;;;;8.20;4.90;;;;;;;8.76;100.00;98974.71;109511;1251;159744;-78
2023/06/13 01:55:08;;;;;;;6.40;5.50;;;;;;;8.71;100.00;98972.91;109594;1251;65005;-78
2023/06/13 01:57:41;;;;;;;9.40;5.60;;;;;;;8.68;100.00;98973.61;109562;1249;58963;-78
2023/06/13 02:00:33;;;;;;;9.40;5.70;;;;;;;8.67;100.00;98971.75;109656;1250;58879;-78
2023/06/13 02:03:00;;;;;;;5.90;5.20;;;;;;;8.64;100.00;98968.21;109606;1250;65852;-78
2023/06/13 02:05:27;;;;;;;6.50;5.50;;;;;;;8.61;100.00;98964.65;109471;1251;60161;-78
2023/06/13 02:07:56;;;;;;;6.30;5.40;;;;;;;8.60;100.00;98960.83;109639;1250;65168;-79
2023/06/13 02:10:23;;;;;;;6.10;5.50;;;;;;;8.58;100.00;98961.98;109612;1249;58969;-78
2023/06/13 02:12:50;;;;;;;7.80;5.50;;;;;;;8.55;100.00;98965.70;109637;1250;59094;-78
2023/06/13 02:15:16;;;;;;;5.60;5.10;;;;;;;8.52;100.00;98969.98;109628;1250;59597;-78
2023/06/13 02:17:43;;;;;;;10.20;5.30;;;;;;;8.47;100.00;98971.30;109601;1249;59040;-77
2023/06/13 02:20:10;;;;;;;5.70;5.10;;;;;;;8.41;100.00;98969.20;109642;1249;59095;-78
2023/06/13 02:22:36;;;;;;;5.60;5.00;;;;;;;8.32;100.00;98969.13;109360;1250;58999;-77
2023/06/13 02:25:04;;;;;;;5.30;4.80;;;;;;;8.23;100.00;98969.30;109627;1250;58909;-76
2023/06/13 02:27:31;;;;;;;8.10;5.60;;;;;;;8.16;100.00;98968.49;109595;1249;65946;-79
2023/06/13 02:29:57;;;;;;;6.90;6.20;;;;;;;8.10;100.00;98966.55;109617;1249;60793;-78
2023/06/13 02:32:24;;;;;;;7.30;5.60;;;;;;;8.10;100.00;98968.29;109592;1249;63285;-76
2023/06/13 02:34:51;;;;;;;8.20;5.50;;;;;;;8.12;100.00;98969.07;109594;1250;58931;-78
2023/06/13 02:37:20;;;;;;;7.90;6.00;;;;;;;8.13;100.00;98970.77;109620;1249;58969;-78
2023/06/13 02:39:46;;;;;;;6.40;5.50;;;;;;;8.12;100.00;98973.67;109583;1249;65721;-76
2023/06/13 02:42:13;;;;;;;6.50;5.60;;;;;;;8.11;100.00;98974.06;109660;1250;60032;-76
2023/06/13 02:44:41;;;;;;;5.70;5.00;;;;;;;8.11;100.00;98973.19;109586;1249;59015;-78
2023/06/13 02:47:07;;;;;;;7.50;5.20;;;;;;;8.09;100.00;98974.38;109583;1249;58938;-78
2023/06/13 02:49:34;;;;;;;8.00;5.30;;;;;;;8.09;100.00;98974.52;109629;1250;59049;-78
2023/06/13 02:52:00;;;;;;;6.00;5.40;;;;;;;8.10;100.00;98972.71;109618;1249;59290;-77
2023/06/13 02:54:27;;;;;;;7.60;5.40;;;;;;;8.12;100.00;98969.08;109659;1249;59082;-78
2023/06/13 02:56:53;;;;;;;7.00;5.50;;;;;;;8.15;100.00;98966.10;109571;1249;63724;-78
2023/06/13 02:59:20;;;;;;;6.00;5.20;;;;;;;8.18;100.00;98967.67;109624;1249;59090;-78
2023/06/13 03:01:46;;;;;;;8.00;5.40;;;;;;;8.22;100.00;98967.42;109649;1249;59052;-78
2023/06/13 03:04:13;;;;;;;7.70;5.80;;;;;;;8.27;100.00;98968.93;109641;1249;59131;-77
2023/06/13 03:06:41;;;;;;;13.00;6.30;;;;;;;8.32;100.00;98968.42;109621;1249;59006;-77
2023/06/13 03:09:08;;;;;;;9.20;6.20;;;;;;;8.36;100.00;98966.77;109618;1249;63786;-77
2023/06/13 03:11:34;;;;;;;7.10;6.40;;;;;;;8.43;100.00;98962.54;109647;1249;59006;-74
2023/06/13 03:14:00;;;;;;;7.90;6.00;;;;;;;8.50;100.00;98966.36;109620;1250;59011;-78
2023/06/13 03:16:28;;;;;;;7.70;6.50;;;;;;;8.56;100.00;98962.10;109606;1249;59546;-78
2023/06/13 03:18:55;;;;;;;8.70;6.30;;;;;;;8.62;100.00;98964.77;109600;1249;61364;-78
2023/06/13 03:21:21;;;;;;;7.30;6.40;;;;;;;8.68;100.00;98966.70;109654;1250;63948;-79
2023/06/13 03:23:48;;;;;;;8.20;6.80;;;;;;;8.75;100.00;98966.99;109603;1249;58972;-77
2023/06/13 03:26:16;;;;;;;8.30;7.20;;;;;;;8.84;100.00;98969.65;109604;1249;59212;-78
2023/06/13 03:28:43;;;;;;;9.90;6.70;;;;;;;9.24;100.00;98967.21;109378;1249;75291;-78
2023/06/13 03:31:11;;;;;;;6.80;6.10;;;;;;;10.30;100.00;98962.34;109645;1249;60141;-78
2023/06/13 03:33:38;;;;;;;6.20;5.50;;;;;;;11.38;100.00;98959.45;109589;1250;62719;-78
2023/06/13 03:36:05;;;;;;;7.30;5.80;;;;;;;12.32;100.00;98960.84;109580;1249;59108;-77
2023/06/13 03:38:31;;;;;;;7.20;5.40;;;;;;;13.20;98.11;98954.44;109623;1250;59011;-77
2023/06/13 03:40:58;;;;;;;6.90;5.50;;;;;;;14.03;93.68;98947.83;109621;1249;66383;-77
2023/06/13 03:43:26;;;;;;;6.70;5.40;;;;;;;14.79;89.14;98947.09;109667;1249;59799;-78
2023/06/13 03:45:53;;;;;;;6.30;5.00;;;;;;;15.45;85.70;98949.80;109661;1249;63182;-77
2023/06/13 03:48:19;;;;;;;6.80;4.80;;;;;;;16.10;82.83;98948.02;109591;1249;59446;-78
2023/06/13 03:50:46;;;;;;;5.40;5.00;;;;;;;16.71;79.82;98953.02;109641;1250;58959;-79
2023/06/13 03:53:12;;;;;;;6.20;5.20;;;;;;;17.24;77.58;98950.75;109606;1249;59632;-78
2023/06/13 03:55:39;;;;;;;6.50;5.70;;;;;;;17.83;75.74;98949.02;109611;1250;59060;-78
2023/06/13 03:58:06;;;;;;;5.50;5.00;;;;;;;18.47;73.68;98944.45;109562;1249;64052;-78
2023/06/13 04:00:32;;;;;;;8.80;5.90;;;;;;;19.05;71.29;98941.24;109399;1249;59255;-78
2023/06/13 04:03:00;;;;;;;7.70;6.10;;;;;;;19.58;69.30;98934.73;109635;1249;59809;-77
2023/06/13 04:05:27;;;;;;;6.90;6.40;;;;;;;20.06;67.46;98934.33;109595;1250;64799;-77
2023/06/13 04:07:54;;;;;;;8.80;8.10;;;;;;;20.53;65.92;98936.95;109655;1249;61421;-78
2023/06/13 04:10:21;;;;;;;7.70;6.90;;;;;;;21.00;64.37;98940.90;109644;1249;65156;-78
2023/06/13 04:12:47;;;;;;;7.10;5.80;;;;;;;21.37;62.73;98939.64;109595;1249;58966;-78
2023/06/13 04:15:15;;;;;;;6.10;5.50;;;;;;;21.73;61.41;98938.11;109616;1250;58964;-76
2023/06/13 04:17:41;;;;;;;5.60;5.10;;;;;;;21.86;60.04;98936.77;109600;1249;64519;-77
2023/06/13 04:20:11;;;;;;;5.40;4.90;;;;;;;21.96;59.27;98935.85;109664;1249;59028;-78
2023/06/13 04:22:37;;;;;;;7.20;5.40;;;;;;;22.17;58.15;98927.41;109637;1249;64035;-79
2023/06/13 04:25:04;;;;;;;5.50;5.10;;;;;;;22.36;57.14;98921.23;109636;1249;58959;-77
2023/06/13 04:27:31;;;;;;;5.80;5.20;;;;;;;22.57;55.78;98919.25;109642;1249;59119;-78
2023/06/13 04:29:59;;;;;;;6.70;5.30;;;;;;;22.74;55.27;98918.15;109599;1250;66034;-77
2023/06/13 04:32:28;;;;;;;7.60;5.30;;;;;;;22.89;54.87;98917.48;109604;1250;60240;-78
2023/06/13 04:34:55;;;;;;;6.10;5.50;;;;;;;23.18;53.71;98921.96;109583;1249;62868;-78
2023/06/13 04:37:30;;;;;;;5.90;5.50;;;;;;;23.34;52.55;98918.27;109571;1250;59385;-76
2023/06/13 04:39:58;;;;;;;5.90;5.20;;;;;;;23.46;51.86;98917.98;109608;1249;59856;-78
2023/06/13 04:42:26;;;;;;;8.50;5.80;;;;;;;23.58;51.41;98921.33;109676;1249;64618;-78
2023/06/13 04:45:01;;;;;;;6.30;5.70;;;;;;;23.82;50.47;98920.58;109430;1250;60243;-78
2023/06/13 04:47:32;;;;;;;6.30;5.80;;;;;;;23.83;49.25;98921.32;109618;1249;62962;-79
2023/06/13 04:49:59;;;;;;;6.80;5.60;;;;;;;23.66;48.90;98919.02;109609;1249;59019;-79
2023/06/13 04:52:29;;;;;;;7.40;5.40;;;;;;;23.48;48.79;98924.20;109630;1249;58989;-77
2023/06/13 04:54:57;;;;;;;6.00;5.40;;;;;;;23.53;48.86;98920.42;109605;1249;64706;-78
2023/06/13 04:57:23;;;;;;;5.90;5.00;;;;;;;23.63;48.24;98916.58;109472;1250;59891;-78
2023/06/13 04:59:50;;;;;;;6.80;5.10;;;;;;;23.46;47.63;98917.30;109635;1250;64179;-77
2023/06/13 05:02:16;;;;;;;6.00;5.50;;;;;;;23.48;47.65;98912.59;109606;1249;58944;-78
2023/06/13 05:04:44;;;;;;;6.80;6.20;;;;;;;23.42;47.14;98913.66;109607;1249;59041;-78
2023/06/13 05:07:15;;;;;;;6.20;5.60;;;;;;;23.36;46.95;98912.64;109630;1249;64565;-76
2023/06/13 05:09:45;;;;;;;5.90;5.30;;;;;;;23.39;46.99;98915.49;109382;1250;59064;-77
2023/06/13 05:12:12;;;;;;;5.30;4.90;;;;;;;23.38;46.87;98912.64;109599;1250;64058;-77
2023/06/13 05:14:40;;;;;;;5.60;5.10;;;;;;;23.43;46.72;98908.44;109586;1249;58951;-77
2023/06/13 05:17:06;;;;;;;5.50;5.00;;;;;;;23.53;46.35;98904.52;109608;1249;58981;-77
2023/06/13 05:19:35;;;;;;;8.40;5.60;;;;;;;23.56;46.23;98905.39;109653;1249;64658;-78
2023/06/13 05:22:03;;;;;;;5.20;4.80;;;;;;;23.64;46.19;98903.16;109560;1250;59066;-77
2023/06/13 05:24:30;;;;;;;6.40;5.80;;;;;;;23.76;45.93;98901.58;109607;1249;63719;-77
2023/06/13 05:26:57;;;;;;;5.70;5.20;;;;;;;23.92;46.04;98906.48;109604;1249;59237;-77
2023/06/13 05:29:24;;;;;;;5.10;4.60;;;;;;;24.12;45.74;98906.88;109639;1250;58972;-77
2023/06/13 05:31:50;;;;;;;5.40;4.90;;;;;;;24.31;45.60;98907.27;109485;1249;67217;-77
2023/06/13 05:34:17;;;;;;;5.10;4.60;;;;;;;24.55;45.31;98909.59;109795;1249;60163;-77
2023/06/13 05:36:43;;;;;;;5.40;4.90;;;;;;;24.75;44.82;98905.33;109450;1249;63862;-77
2023/06/13 05:39:10;;;;;;;5.30;4.80;;;;;;;24.84;44.49;98905.08;109737;1249;59031;-77
2023/06/13 05:41:37;;;;;;;5.30;4.90;;;;;;;24.80;43.68;98904.67;109736;1249;59271;-76
2023/06/13 05:44:03;;;;;;;5.30;4.90;;;;;;;24.65;43.61;98900.22;109720;1249;65949;-77
2023/06/13 05:46:30;;;;;;;5.90;5.30;;;;;;;24.70;43.79;98897.20;109745;1249;59028;-79
2023/06/13 05:48:56;;;;;;;5.90;5.10;;;;;;;24.82;43.82;98893.10;109735;1249;59018;-75
2023/06/13 05:51:23;;;;;;;5.40;4.90;;;;;;;24.83;43.06;98893.91;109759;1249;58910;-78
2023/06/13 05:53:50;;;;;;;6.40;5.70;;;;;;;24.56;42.81;98894.21;109495;1249;59714;-78
2023/06/13 05:56:17;;;;;;;6.20;5.50;;;;;;;24.42;42.90;98894.71;109757;1250;64505;-77
2023/06/13 05:58:44;;;;;;;6.70;4.90;;;;;;;24.52;43.30;98891.33;109742;1249;59910;-77
2023/06/13 06:01:10;;;;;;;6.10;5.00;;;;;;;24.60;43.03;98894.13;109724;1249;62512;-77
2023/06/13 06:03:37;;;;;;;6.00;5.50;;;;;;;24.67;42.94;98893.77;109753;1249;59043;-77
2023/06/13 06:06:04;;;;;;;5.00;4.40;;;;;;;24.78;42.91;98891.77;109786;1249;58998;-78
2023/06/13 06:08:30;;;;;;;5.60;4.90;;;;;;;24.91;42.66;98894.64;109747;1249;64746;-77
2023/06/13 06:10:57;;;;;;;5.60;5.20;;;;;;;24.89;42.59;98892.37;109831;1249;58982;-78
2023/06/13 06:13:24;;;;;;;5.90;5.40;;;;;;;24.87;42.57;98894.63;109789;1249;64840;-77
2023/06/13 06:15:50;;;;;;;5.60;5.10;;;;;;;24.94;42.44;98895.55;109760;1249;59005;-77
2023/06/13 06:18:20;;;;;;;5.40;4.90;;;;;;;25.02;42.59;98891.33;109768;1249;58906;-78
2023/06/13 06:20:46;;;;;;;4.80;4.30;;;;;;;25.14;42.36;98893.54;109531;1249;67893;-77
2023/06/13 06:23:14;;;;;;;5.70;5.10;;;;;;;25.27;41.82;98890.91;109795;1249;59072;-77
2023/06/13 06:25:41;;;;;;;4.40;4.10;;;;;;;25.38;42.03;98891.53;109819;1249;64111;-77
2023/06/13 06:28:08;;;;;;;5.10;4.60;;;;;;;25.48;41.76;98890.91;109716;1249;59057;-79
2023/06/13 06:30:38;;;;;;;4.60;3.80;;;;;;;25.58;41.58;98892.56;109755;1249;58885;-80
2023/06/13 06:33:04;;;;;;;8.50;5.30;;;;;;;25.76;41.56;98889.34;109730;1249;65866;-77
2023/06/13 06:35:31;;;;;;;6.40;4.50;;;;;;;25.61;41.21;98887.00;109744;1249;59002;-77
2023/06/13 06:37:58;;;;;;;5.30;4.80;;;;;;;25.52;41.42;98879.27;109743;1250;62848;-77
2023/06/13 06:40:25;;;;;;;5.10;3.70;;;;;;;25.45;40.82;98880.98;109746;1249;58975;-77
2023/06/13 06:42:51;;;;;;;5.10;3.80;;;;;;;25.27;40.96;98878.24;109372;1250;59159;-78
2023/06/13 06:45:17;;;;;;;3.80;3.50;;;;;;;25.05;40.84;98872.77;109766;1249;59326;-79
2023/06/13 06:47:44;;;;;;;3.90;3.60;;;;;;;24.61;40.64;98875.65;109759;1249;59062;-78
2023/06/13 06:50:11;;;;;;;3.40;2.90;;;;;;;24.42;40.53;98880.73;109687;1249;64040;-77
2023/06/13 06:52:38;;;;;;;6.90;3.40;;;;;;;24.11;40.26;98880.68;109715;1249;58983;-78
2023/06/13 06:55:04;;;;;;;4.20;3.30;;;;;;;23.85;40.89;98884.79;109701;1249;59038;-76
2023/06/13 06:57:31;;;;;;;3.30;2.80;;;;;;;23.89;41.32;98884.54;109702;1250;64808;-78
2023/06/13 06:59:57;;;;;;;2.70;2.50;;;;;;;23.75;41.46;98880.07;109721;1249;60974;-77
2023/06/13 07:02:24;;;;;;;4.50;3.40;;;;;;;23.68;41.01;98879.86;109428;1250;59042;-75
2023/06/13 07:04:50;;;;;;;5.20;3.40;;;;;;;23.23;40.92;98881.41;109746;1250;58925;-75
2023/06/13 07:07:17;;;;;;;5.00;3.20;;;;;;;22.91;40.84;98882.06;109723;1250;58989;-76
2023/06/13 07:09:43;;;;;;;3.00;2.60;;;;;;;22.50;40.86;98885.48;109727;1249;66048;-75
2023/06/13 07:12:10;;;;;;;4.80;2.70;;;;;;;22.15;41.52;98885.43;109499;1250;60524;-76
2023/06/13 07:14:36;;;;;;;5.20;3.30;;;;;;;22.20;41.99;98886.39;109701;1249;62800;-74
2023/06/13 07:17:04;;;;;;;4.00;3.00;;;;;;;21.89;42.63;98884.02;109433;1250;59004;-76
2023/06/13 07:19:30;;;;;;;3.30;3.00;;;;;;;22.00;42.85;98880.71;109727;1249;59010;-75
2023/06/13 07:21:57;;;;;;;4.60;2.60;;;;;;;22.31;42.97;98878.86;109772;1249;64862;-74
2023/06/13 07:24:23;;;;;;;4.40;2.50;;;;;;;22.61;43.44;98872.63;109715;1249;59130;-75
2023/06/13 07:26:49;;;;;;;3.60;3.10;;;;;;;22.98;43.47;98868.52;109713;1249;59526;-74
2023/06/13 07:29:16;;;;;;;3.70;2.80;;;;;;;23.08;42.65;98875.85;109758;1249;58975;-74
2023/06/13 07:31:42;;;;;;;4.30;3.00;;;;;;;23.04;42.71;98878.08;109748;1249;59178;-75
2023/06/13 07:34:09;;;;;;;2.80;2.60;;;;;;;22.73;42.82;98878.44;109688;1250;58923;-74
2023/06/13 07:36:37;;;;;;;5.10;3.00;;;;;;;22.33;43.13;98877.80;109741;1249;60595;-76
2023/06/13 07:39:14;;;;;;;3.90;3.20;;;;;;;21.97;43.21;98876.59;109696;1250;65181;-75
2023/06/13 07:41:44;;;;;;;3.40;3.10;;;;;;;21.58;44.13;98876.10;109712;1249;58956;-75
2023/06/13 07:44:10;;;;;;;;;;;;;;;21.39;44.70;98881.58;109724;1249;59229;-75
2023/06/13 07:46:36;;;;;;;4.60;3.40;;;;;;;21.10;44.92;98885.58;109751;1249;59174;-76
2023/06/13 07:49:03;;;;;;;3.50;3.10;;;;;;;20.83;45.31;98883.49;109722;1249;59011;-75
2023/06/13 07:51:30;;;;;;;5.40;3.50;;;;;;;20.58;45.74;98885.50;109512;1249;62551;-77
2023/06/13 07:53:56;;;;;;;5.30;3.20;;;;;;;20.74;46.34;98883.90;109696;1249;59008;-75
2023/06/13 07:56:23;;;;;;;6.20;4.30;;;;;;;20.93;46.44;98874.77;109717;1249;59012;-74
2023/06/13 07:58:50;;;;;;;3.70;3.00;;;;;;;21.13;47.50;98871.08;109701;1250;64953;-75
2023/06/13 08:01:16;;;;;;;4.40;3.00;;;;;;;21.36;46.82;98871.02;109721;1249;61404;-74
2023/06/13 08:03:46;;;;;;;2.90;2.70;;;;;;;21.35;46.42;98868.77;109727;1249;62777;-75
2023/06/13 08:06:12;;;;;;;4.40;2.60;;;;;;;21.34;46.25;98864.01;109694;1249;58951;-75
2023/06/13 08:08:39;;;;;;;3.00;2.60;;;;;;;21.30;46.73;98865.71;109746;1249;59019;-77
2023/06/13 08:11:05;;;;;;;3.40;2.60;;;;;;;21.60;46.14;98865.63;109441;1249;64833;-74
2023/06/13 08:13:32;;;;;;;3.50;2.70;;;;;;;21.59;45.57;98871.33;109733;1250;58998;-76
2023/06/13 08:16:01;;;;;;;3.30;2.70;;;;;;;21.39;45.14;98870.16;109717;1250;62493;-74
2023/06/13 08:18:27;;;;;;;3.50;3.00;;;;;;;21.30;45.81;98869.23;109733;1249;59063;-75
2023/06/13 08:20:54;;;;;;;3.30;2.60;;;;;;;21.33;46.52;98870.79;109746;1249;58952;-76
2023/06/13 08:23:21;;;;;;;3.10;2.40;;;;;;;21.45;46.62;98870.02;109712;1250;64477;-74
2023/06/13 08:25:48;;;;;;;2.80;2.40;;;;;;;21.56;46.68;98870.89;109720;1249;59032;-75
2023/06/13 08:28:14;;;;;;;6.80;2.50;;;;;;;21.60;45.70;98874.54;109710;1249;72615;-75
2023/06/13 08:30:42;;;;;;;5.20;2.70;;;;;;;21.72;45.70;98870.57;109721;1249;59012;-76
2023/06/13 08:33:08;;;;;;;3.60;3.30;;;;;;;21.86;45.19;98869.59;109743;1250;59022;-76
2023/06/13 08:35:35;;;;;;;3.80;2.80;;;;;;;21.91;45.52;98867.13;109732;1249;66485;-76
2023/06/13 08:38:02;;;;;;;3.30;3.00;;;;;;;22.01;45.24;98871.70;109738;1249;60416;-76
2023/06/13 08:40:28;;;;;;;3.10;2.80;;;;;;;22.01;45.50;98869.03;109340;1250;62896;-76
2023/06/13 08:42:55;;;;;;;4.40;2.40;;;;;;;22.16;45.89;98862.77;109682;1249;59343;-76
2023/06/13 08:45:22;;;;;;;3.50;2.90;;;;;;;22.35;46.07;98865.94;109751;1249;58940;-74
2023/06/13 08:47:48;;;;;;;2.80;2.60;;;;;;;22.53;45.65;98866.11;109385;1249;66033;-75
2023/06/13 08:50:24;;;;;;;3.30;2.50;;;;;;;22.60;45.49;98866.77;109562;1249;59224;-76
2023/06/13 08:52:52;;;;;;;4.10;2.70;;;;;;;22.73;44.30;98865.92;109676;1249;63744;-76
2023/06/13 08:55:22;;;;;;;2.40;2.10;;;;;;;22.45;43.86;98864.07;109684;1249;59040;-75
2023/06/13 08:57:53;;;;;;;4.30;2.50;;;;;;;22.40;44.27;98865.86;109711;1250;59007;-75
2023/06/13 09:00:21;;;;;;;3.10;2.80;;;;;;;22.51;44.64;98864.92;109665;1249;66844;-75
2023/06/13 09:02:50;;;;;;;5.70;2.80;;;;;;;22.71;44.29;98865.23;109779;1250;59830;-75
2023/06/13 09:05:18;;;;;;;;;;;;;;;22.75;43.75;98865.73;109714;1249;62787;-75
2023/06/13 09:07:46;;;;;;;2.90;2.00;;;;;;;22.73;43.49;98866.10;109707;1249;59046;-75
2023/06/13 09:10:14;;;;;;;2.80;2.30;;;;;;;22.74;43.61;98868.41;109732;1249;59105;-75
2023/06/13 09:12:42;;;;;;;4.90;2.30;;;;;;;22.89;43.79;98864.98;109754;1250;64612;-75
2023/06/13 09:15:10;;;;;;;4.30;2.00;;;;;;;23.24;43.78;98861.63;109745;1249;60290;-76
2023/06/13 09:17:37;;;;;;;4.30;1.80;;;;;;;23.56;43.29;98866.63;109543;1249;65056;-75
2023/06/13 09:20:06;;;;;;;3.10;1.80;;;;;;;23.70;42.39;98865.06;109704;1249;59037;-75
2023/06/13 09:22:33;;;;;;;3.10;1.70;;;;;;;23.52;42.54;98862.73;109516;1249;59157;-74
2023/06/13 09:25:01;;;;;;;5.70;1.90;;;;;;;23.35;42.80;98857.70;109709;1250;64533;-74
2023/06/13 09:27:27;;;;;;;3.20;1.90;;;;;;;23.15;42.62;98850.72;109732;1249;60217;-74
2023/06/13 09:29:54;;;;;;;3.80;2.00;;;;;;;22.75;42.42;98849.79;109743;1249;62914;-74
2023/06/13 09:32:21;;;;;;;1.70;1.60;;;;;;;22.63;42.81;98849.28;109695;1249;58909;-75
2023/06/13 09:34:48;;;;;;;3.40;1.70;;;;;;;22.68;42.89;98844.70;109708;1249;59047;-75
2023/06/13 09:37:18;;;;;;;2.60;1.90;;;;;;;22.74;42.86;98846.58;109707;1249;65117;-74
2023/06/13 09:39:50;;;;;;;3.90;1.80;;;;;;;22.76;42.65;98841.86;109704;1249;59285;-75
2023/06/13 09:42:21;;;;;;;3.90;1.70;;;;;;;22.60;42.14;98846.11;109710;1250;62846;-75
2023/06/13 09:44:50;;;;;;;3.60;1.70;;;;;;;22.62;42.55;98839.20;109662;1249;59003;-74
2023/06/13 09:47:22;;;;;;;2.00;1.40;;;;;;;22.82;43.24;98837.05;109677;1251;58990;-76
2023/06/13 09:49:56;;;;;;;2.90;1.90;;;;;;;22.94;42.67;98834.59;109717;1249;65012;-74
2023/06/13 09:52:28;;;;;;;4.50;1.70;;;;;;;22.99;42.00;98835.88;109747;1249;59897;-75
2023/06/13 09:54:54;;;;;;;2.10;1.80;;;;;;;22.74;42.00;98834.30;109491;1249;62551;-75
2023/06/13 09:57:21;;;;;;;2.70;1.80;;;;;;;22.59;42.23;98834.10;109479;1249;59023;-75
2023/06/13 09:59:50;;;;;;;2.20;1.70;;;;;;;22.71;42.46;98831.59;109780;1249;58939;-75
2023/06/13 10:02:19;;;;;;;1.90;1.70;;;;;;;22.91;42.63;98829.95;109689;1249;66118;-74
2023/06/13 10:04:51;;;;;;;2.80;1.70;;;;;;;23.04;42.28;98824.25;109782;1249;59153;-75
2023/06/13 10:07:18;;;;;;;2.50;1.80;;;;;;;23.10;41.77;98821.19;109702;1250;64072;-76
2023/06/13 10:09:46;;;;;;;3.60;1.90;;;;;;;23.13;41.80;98811.14;109733;1250;58941;-75
2023/06/13 10:12:18;;;;;;;1.70;1.60;;;;;;;23.18;41.51;98807.39;109655;1251;59025;-75
2023/06/13 10:14:52;;;;;;;1.90;1.80;;;;;;;23.17;41.25;98806.50;109707;1249;66034;-74
2023/06/13 10:17:20;;;;;;;1.80;1.60;;;;;;;23.09;41.67;98809.52;109753;1249;60150;-74
2023/06/13 10:19:53;;;;;;;2.50;1.80;;;;;;;23.23;41.17;98806.16;109714;1249;64390;-77
2023/06/13 10:22:20;;;;;;;3.50;2.00;;;;;;;23.39;40.54;98803.05;109711;1249;59002;-74
2023/06/13 10:24:50;;;;;;;4.20;2.10;;;;;;;23.23;39.93;98800.92;109723;1249;59230;-75
2023/06/13 10:27:19;;;;;;;2.80;1.20;;;;;;;22.77;40.36;98807.48;109752;1249;64858;-75
2023/06/13 10:29:58;;;;;;;2.30;1.70;;;;;;;22.55;41.23;98808.17;109696;1250;60121;-75
2023/06/13 10:33:02;;;;;;;2.60;1.90;;;;;;;22.52;41.30;98807.11;109721;1249;64055;-75
2023/06/13 10:35:56;;;;;;;3.70;2.30;;;;;;;22.72;41.39;98806.34;109685;1249;58975;-75
2023/06/13 10:38:48;;;;;;;1.60;1.50;;;;;;;23.06;40.97;98798.23;109547;1249;59021;-75
2023/06/13 10:41:53;;;;;;;3.20;1.80;;;;;;;22.88;40.41;98793.34;109707;1250;66109;-75
2023/06/13 10:44:48;;;;;;;4.40;1.80;;;;;;;22.72;40.61;98794.19;109074;1256;59875;-75
2023/06/13 10:47:17;;;;;;;2.30;2.00;;;;;;;22.52;40.94;98795.70;108623;1264;63974;-75
2023/06/13 10:49:48;;;;;;;2.20;1.90;;;;;;;22.27;41.54;98794.54;108621;1264;59025;-76
2023/06/13 10:52:17;;;;;;;2.20;1.50;;;;;;;22.34;41.57;98794.36;108469;1264;59107;-75
2023/06/13 10:54:51;;;;;;;4.10;1.80;;;;;;;22.60;41.64;98791.83;108633;1265;64873;-76
2023/06/13 10:57:18;;;;;;;4.00;1.90;;;;;;;22.85;41.30;98792.38;108465;1264;60082;-75
2023/06/13 10:59:47;;;;;;;3.00;1.50;;;;;;;22.84;40.96;98793.65;108624;1265;64100;-76
2023/06/13 11:02:15;;;;;;;2.90;1.40;;;;;;;22.82;41.22;98795.75;108604;1265;59067;-75
2023/06/13 11:04:50;;;;;;;2.60;1.80;;;;;;;22.78;41.97;98798.16;108645;1264;58944;-75
2023/06/13 11:07:25;;;;;;;3.80;1.50;;;;;;;22.90;42.38;98795.79;108629;1264;65807;-75
2023/06/13 11:10:15;;;;;;;2.00;1.60;;;;;;;22.97;42.31;98795.70;108633;1264;59305;-75
2023/06/13 11:12:45;;;;;;;5.20;2.00;;;;;;;23.01;41.63;98794.65;108620;1264;64237;-74
2023/06/13 11:15:21;;;;;;;;;;;;;;;22.84;41.13;98794.00;108593;1264;59092;-75
2023/06/13 11:18:14;;;;;;;3.70;1.60;;;;;;;22.50;41.20;98793.52;108645;1265;59084;-75
2023/06/13 11:20:51;;;;;;;2.40;1.60;;;;;;;22.24;41.24;98796.33;108352;1264;67128;-75
2023/06/13 11:23:43;;;;;;;1.70;1.50;;;;;;;22.01;41.24;98797.77;108629;1266;60151;-76
2023/06/13 11:26:11;;;;;;;4.00;2.10;;;;;;;21.69;41.64;98797.79;108961;1259;64117;-74
2023/06/13 11:28:37;;;;;;;2.60;1.80;;;;;;;21.70;42.07;98791.63;108913;1259;59040;-76
2023/06/13 11:31:05;;;;;;;1.90;1.70;;;;;;;21.89;42.61;98787.16;108947;1258;58902;-77
2023/06/13 11:33:39;;;;;;;2.90;1.70;;;;;;;21.95;42.20;98785.55;108970;1259;65748;-75
2023/06/13 11:36:06;;;;;;;1.90;1.80;;;;;;;21.84;42.10;98791.41;108951;1258;60327;-76